sensor_id;sensor_type;location;lat;lon;timestamp;pressure;altitude;pressure_sealevel;temperature;humidity
38912;BME280;28444;48.056;14.408;2023-09-19T00:01:00;97303.72;;;16.85;100.00
38912;BME280;28444;48.056;14.408;2023-09-19T00:03:26;97293.19;;;16.81;100.00
38912;BME280;28444;48.056;14.408;2023-09-19T00:05:54;97292.34;;;16.79;100.00
38912;BME280;28444;48.056;14.408;2023-09-19T00:08:22;97296.53;;;16.80;100.00
38912;BME280;28444;48.056;14.408;2023-09-19T00:10:51;97282.72;;;16.80;100.00
38912;BME280;28444;48.056;14.408;2023-09-19T00:13:17;97293.34;;;16.72;100.00
38912;BME280;28444;48.056;14.408;2023-09-19T00:15:47;97281.91;;;16.77;100.00
38912;BME280;28444;48.056;14.408;2023-09-19T00:18:18;97282.94;;;16.84;100.00
38912;BME280;28444;48.056;14.408;2023-09-19T00:20:49;97283.56;;;16.82;100.00
38912;BME280;28444;48.056;14.408;2023-09-19T00:23:17;97271.59;;;16.78;100.00
38912;BME280;28444;48.056;14.408;2023-09-19T00:25:46;97285.44;;;16.66;100.00
38912;BME280;28444;48.056;14.408;2023-09-19T00:28:13;97280.41;;;16.74;100.00
38912;BME280;28444;48.056;14.408;2023-09-19T00:30:42;97274.91;;;16.63;100.00
38912;BME280;28444;48.056;14.408;2023-09-19T00:33:10;97271.13;;;16.56;100.00
38912;BME280;28444;48.056;14.408;2023-09-19T00:35:38;97270.00;;;16.61;100.00
38912;BME280;28444;48.056;14.408;2023-09-19T00:38:05;97278.63;;;16.67;100.00
38912;BME280;28444;48.056;14.408;2023-09-19T00:40:33;97283.31;;;16.65;100.00
38912;BME280;28444;48.056;14.408;2023-09-19T00:43:00;97298.97;;;16.74;100.00
38912;BME280;28444;48.056;14.408;2023-09-19T00:45:27;97298.84;;;16.72;100.00
38912;BME280;28444;48.056;14.408;2023-09-19T00:47:55;97292.16;;;16.75;100.00
38912;BME280;28444;48.056;14.408;2023-09-19T00:50:25;97296.81;;;16.72;100.00
38912;BME280;28444;48.056;14.408;2023-09-19T00:52:56;97298.16;;;16.71;100.00
38912;BME280;28444;48.056;14.408;2023-09-19T00:55:24;97296.09;;;16.72;100.00
38912;BME280;28444;48.056;14.408;2023-09-19T00:57:51;97306.03;;;16.77;100.00
38912;BME280;28444;48.056;14.408;2023-09-19T01:00:19;97293.56;;;16.76;100.00
38912;BME280;28444;48.056;14.408;2023-09-19T01:02:47;97300.19;;;16.71;100.00
38912;BME280;28444;48.056;14.408;2023-09-19T01:05:15;97301.75;;;16.74;100.00
38912;BME280;28444;48.056;14.408;2023-09-19T01:07:42;97299.63;;;16.86;100.00
38912;BME280;28444;48.056;14.408;2023-09-19T01:10:13;97301.88;;;16.90;100.00
38912;BME280;28444;48.056;14.408;2023-09-19T01:13:21;97307.78;;;16.84;100.00
38912;BME280;28444;48.056;14.408;2023-09-19T01:15:57;97303.81;;;16.87;100.00
38912;BME280;28444;48.056;14.408;2023-09-19T01:18:35;97310.75;;;16.88;100.00
38912;BME280;28444;48.056;14.408;2023-09-19T01:21:29;97305.25;;;16.88;100.00
38912;BME280;28444;48.056;14.408;2023-09-19T01:32:07;97312.50;;;16.95;100.00
38912;BME280;28444;48.056;14.408;2023-09-19T01:37:17;97307.78;;;16.84;100.00
38912;BME280;28444;48.056;14.408;2023-09-19T01:39:47;97301.41;;;16.68;100.00
38912;BME280;28444;48.056;14.408;2023-09-19T01:42:28;97303.19;;;16.75;100.00
38912;BME280;28444;48.056;14.408;2023-09-19T01:45:11;97297.94;;;16.67;100.00
38912;BME280;28444;48.056;14.408;2023-09-19T01:47:51;97294.63;;;16.57;100.00
38912;BME280;28444;48.056;14.408;2023-09-19T01:50:35;97296.56;;;16.54;100.00
38912;BME280;28444;48.056;14.408;2023-09-19T01:53:17;97284.94;;;16.56;100.00
38912;BME280;28444;48.056;14.408;2023-09-19T01:55:49;97303.63;;;16.57;100.00
38912;BME280;28444;48.056;14.408;2023-09-19T01:58:21;97298.63;;;16.54;100.00
38912;BME280;28444;48.056;14.408;2023-09-19T02:00:49;97288.00;;;16.62;100.00
38912;BME280;28444;48.056;14.408;2023-09-19T02:03:21;97292.09;;;16.61;100.00
38912;BME280;28444;48.056;14.408;2023-09-19T02:05:51;97273.16;;;16.55;100.00
38912;BME280;28444;48.056;14.408;2023-09-19T02:08:21;97281.34;;;16.53;100.00
38912;BME280;28444;48.056;14.408;2023-09-19T02:10:51;97269.09;;;16.56;100.00
38912;BME280;28444;48.056;14.408;2023-09-19T02:13:20;97259.69;;;16.61;100.00
38912;BME280;28444;48.056;14.408;2023-09-19T02:15:47;97243.84;;;16.62;100.00
38912;BME280;28444;48.056;14.408;2023-09-19T02:18:14;97241.50;;;16.56;100.00
38912;BME280;28444;48.056;14.408;2023-09-19T02:20:44;97250.88;;;16.51;100.00
38912;BME280;28444;48.056;14.408;2023-09-19T02:23:12;97243.09;;;16.48;100.00
38912;BME280;28444;48.056;14.408;2023-09-19T02:25:51;97239.22;;;16.39;100.00
38912;BME280;28444;48.056;14.408;2023-09-19T02:28:18;97242.56;;;16.37;100.00
38912;BME280;28444;48.056;14.408;2023-09-19T02:30:48;97243.00;;;16.46;100.00
38912;BME280;28444;48.056;14.408;2023-09-19T02:33:15;97241.06;;;16.48;100.00
38912;BME280;28444;48.056;14.408;2023-09-19T02:35:43;97250.66;;;16.47;100.00
38912;BME280;28444;48.056;14.408;2023-09-19T02:38:10;97253.97;;;16.57;100.00
38912;BME280;28444;48.056;14.408;2023-09-19T02:40:38;97259.06;;;16.49;100.00
38912;BME280;28444;48.056;14.408;2023-09-19T02:43:05;97259.56;;;16.46;100.00
38912;BME280;28444;48.056;14.408;2023-09-19T02:45:35;97263.97;;;16.51;100.00
38912;BME280;28444;48.056;14.408;2023-09-19T02:48:01;97261.09;;;16.63;100.00
38912;BME280;28444;48.056;14.408;2023-09-19T02:50:29;97266.72;;;16.51;100.00
38912;BME280;28444;48.056;14.408;2023-09-19T02:52:55;97265.38;;;16.52;100.00
38912;BME280;28444;48.056;14.408;2023-09-19T02:55:22;97272.94;;;16.51;100.00
38912;BME280;28444;48.056;14.408;2023-09-19T02:57:51;97270.81;;;16.50;100.00
38912;BME280;28444;48.056;14.408;2023-09-19T03:00:19;97274.44;;;16.41;100.00
38912;BME280;28444;48.056;14.408;2023-09-19T03:02:50;97286.00;;;16.37;100.00
38912;BME280;28444;48.056;14.408;2023-09-19T03:05:18;97291.19;;;16.31;100.00
38912;BME280;28444;48.056;14.408;2023-09-19T03:07:46;97288.00;;;16.23;100.00
38912;BME280;28444;48.056;14.408;2023-09-19T03:10:13;97292.78;;;16.22;100.00
38912;BME280;28444;48.056;14.408;2023-09-19T03:12:43;97294.69;;;16.06;100.00
38912;BME280;28444;48.056;14.408;2023-09-19T03:15:09;97297.50;;;15.94;100.00
38912;BME280;28444;48.056;14.408;2023-09-19T03:17:36;97292.22;;;15.86;100.00
38912;BME280;28444;48.056;14.408;2023-09-19T03:20:04;97297.00;;;15.98;100.00
38912;BME280;28444;48.056;14.408;2023-09-19T03:22:34;97303.94;;;15.99;100.00
38912;BME280;28444;48.056;14.408;2023-09-19T03:25:01;97311.78;;;15.91;100.00
38912;BME280;28444;48.056;14.408;2023-09-19T03:27:27;97308.66;;;15.84;100.00
38912;BME280;28444;48.056;14.408;2023-09-19T03:29:54;97311.44;;;15.84;100.00
38912;BME280;28444;48.056;14.408;2023-09-19T03:32:21;97316.00;;;15.80;100.00
38912;BME280;28444;48.056;14.408;2023-09-19T03:34:48;97321.50;;;15.80;100.00
38912;BME280;28444;48.056;14.408;2023-09-19T03:37:15;97314.78;;;15.83;100.00
38912;BME280;28444;48.056;14.408;2023-09-19T03:39:42;97311.03;;;15.90;100.00
38912;BME280;28444;48.056;14.408;2023-09-19T03:42:08;97309.34;;;15.97;100.00
38912;BME280;28444;48.056;14.408;2023-09-19T03:44:36;97321.31;;;16.01;100.00
38912;BME280;28444;48.056;14.408;2023-09-19T03:47:02;97303.94;;;15.99;100.00
38912;BME280;28444;48.056;14.408;2023-09-19T03:49:31;97304.44;;;15.95;100.00
38912;BME280;28444;48.056;14.408;2023-09-19T03:52:01;97305.88;;;15.96;100.00
38912;BME280;28444;48.056;14.408;2023-09-19T03:54:27;97307.75;;;16.05;100.00
38912;BME280;28444;48.056;14.408;2023-09-19T03:56:54;97304.25;;;16.05;100.00
38912;BME280;28444;48.056;14.408;2023-09-19T03:59:20;97298.16;;;16.06;100.00
38912;BME280;28444;48.056;14.408;2023-09-19T04:01:47;97306.09;;;16.00;100.00
38912;BME280;28444;48.056;14.408;2023-09-19T04:04:14;97303.16;;;15.84;100.00
38912;BME280;28444;48.056;14.408;2023-09-19T04:06:41;97308.91;;;15.88;100.00
38912;BME280;28444;48.056;14.408;2023-09-19T04:09:08;97304.59;;;15.85;100.00
38912;BME280;28444;48.056;14.408;2023-09-19T04:11:36;97305.41;;;15.88;100.00
38912;BME280;28444;48.056;14.408;2023-09-19T04:14:03;97309.38;;;15.85;100.00
38912;BME280;28444;48.056;14.408;2023-09-19T04:16:30;97321.75;;;15.84;100.00
38912;BME280;28444;48.056;14.408;2023-09-19T04:18:57;97312.13;;;15.85;100.00
38912;BME280;28444;48.056;14.408;2023-09-19T04:21:24;97311.66;;;15.88;100.00
38912;BME280;28444;48.056;14.408;2023-09-19T04:23:57;97321.97;;;15.88;100.00
38912;BME280;28444;48.056;14.408;2023-09-19T04:26:28;97328.56;;;15.83;100.00
38912;BME280;28444;48.056;14.408;2023-09-19T04:28:54;97325.66;;;15.93;100.00
38912;BME280;28444;48.056;14.408;2023-09-19T04:31:22;97330.19;;;16.00;100.00
38912;BME280;28444;48.056;14.408;2023-09-19T04:33:49;97334.16;;;15.97;100.00
38912;BME280;28444;48.056;14.408;2023-09-19T04:36:16;97339.66;;;15.97;100.00
38912;BME280;28444;48.056;14.408;2023-09-19T04:39:00;97341.22;;;16.00;100.00
38912;BME280;28444;48.056;14.408;2023-09-19T04:41:31;97341.94;;;16.00;100.00
38912;BME280;28444;48.056;14.408;2023-09-19T04:43:58;97344.81;;;16.02;100.00
38912;BME280;28444;48.056;14.408;2023-09-19T04:46:24;97343.63;;;15.94;100.00
38912;BME280;28444;48.056;14.408;2023-09-19T04:48:51;97343.53;;;15.92;100.00
38912;BME280;28444;48.056;14.408;2023-09-19T04:51:18;97345.09;;;15.95;100.00
38912;BME280;28444;48.056;14.408;2023-09-19T04:53:45;97354.56;;;15.92;100.00
38912;BME280;28444;48.056;14.408;2023-09-19T04:56:12;97353.69;;;16.01;100.00
38912;BME280;28444;48.056;14.408;2023-09-19T04:58:39;97353.56;;;15.99;100.00
38912;BME280;28444;48.056;14.408;2023-09-19T05:01:06;97355.00;;;16.00;100.00
38912;BME280;28444;48.056;14.408;2023-09-19T05:03:37;97361.13;;;15.98;100.00
38912;BME280;28444;48.056;14.408;2023-09-19T05:06:05;97366.19;;;15.90;100.00
38912;BME280;28444;48.056;14.408;2023-09-19T05:08:31;97370.88;;;15.87;100.00
38912;BME280;28444;48.056;14.408;2023-09-19T05:10:58;97384.75;;;15.89;100.00
38912;BME280;28444;48.056;14.408;2023-09-19T05:13:28;97378.03;;;15.93;100.00
38912;BME280;28444;48.056;14.408;2023-09-19T05:15:54;97381.63;;;15.95;100.00
38912;BME280;28444;48.056;14.408;2023-09-19T05:18:21;97387.88;;;15.96;100.00
38912;BME280;28444;48.056;14.408;2023-09-19T05:20:48;97391.56;;;16.00;100.00
38912;BME280;28444;48.056;14.408;2023-09-19T05:23:16;97389.16;;;16.06;100.00
38912;BME280;28444;48.056;14.408;2023-09-19T05:25:43;97389.66;;;16.03;100.00
38912;BME280;28444;48.056;14.408;2023-09-19T05:28:10;97396.59;;;16.04;100.00
38912;BME280;28444;48.056;14.408;2023-09-19T05:30:38;97395.78;;;16.01;100.00
38912;BME280;28444;48.056;14.408;2023-09-19T05:33:06;97402.59;;;16.00;100.00
38912;BME280;28444;48.056;14.408;2023-09-19T05:35:34;97398.63;;;16.03;100.00
38912;BME280;28444;48.056;14.408;2023-09-19T05:38:03;97404.72;;;16.13;100.00
38912;BME280;28444;48.056;14.408;2023-09-19T05:40:32;97409.13;;;16.19;100.00
38912;BME280;28444;48.056;14.408;2023-09-19T05:42:58;97413.94;;;16.18;100.00
38912;BME280;28444;48.056;14.408;2023-09-19T05:45:25;97413.56;;;16.24;100.00
38912;BME280;28444;48.056;14.408;2023-09-19T05:47:52;97422.78;;;16.28;100.00
38912;BME280;28444;48.056;14.408;2023-09-19T05:50:22;97420.97;;;16.33;100.00
38912;BME280;28444;48.056;14.408;2023-09-19T05:52:54;97427.66;;;16.42;100.00
38912;BME280;28444;48.056;14.408;2023-09-19T05:55:22;97429.31;;;16.47;100.00
38912;BME280;28444;48.056;14.408;2023-09-19T05:57:52;97435.53;;;16.47;100.00
38912;BME280;28444;48.056;14.408;2023-09-19T06:00:20;97433.28;;;16.44;100.00
38912;BME280;28444;48.056;14.408;2023-09-19T06:02:51;97433.44;;;16.34;100.00
38912;BME280;28444;48.056;14.408;2023-09-19T06:05:19;97440.28;;;16.33;100.00
38912;BME280;28444;48.056;14.408;2023-09-19T06:07:46;97452.38;;;16.40;100.00
38912;BME280;28444;48.056;14.408;2023-09-19T06:10:13;97443.75;;;16.33;100.00
38912;BME280;28444;48.056;14.408;2023-09-19T06:12:44;97446.56;;;16.22;100.00
38912;BME280;28444;48.056;14.408;2023-09-19T06:15:12;97445.84;;;16.21;100.00
38912;BME280;28444;48.056;14.408;2023-09-19T06:17:45;97457.44;;;16.31;100.00
38912;BME280;28444;48.056;14.408;2023-09-19T06:20:13;97464.97;;;16.43;100.00
38912;BME280;28444;48.056;14.408;2023-09-19T06:22:42;97457.75;;;16.49;100.00
38912;BME280;28444;48.056;14.408;2023-09-19T06:25:10;97460.81;;;16.55;100.00
38912;BME280;28444;48.056;14.408;2023-09-19T06:27:40;97461.28;;;16.64;100.00
38912;BME280;28444;48.056;14.408;2023-09-19T06:30:10;97463.78;;;16.71;100.00
38912;BME280;28444;48.056;14.408;2023-09-19T06:32:44;97451.66;;;16.76;100.00
38912;BME280;28444;48.056;14.408;2023-09-19T06:35:12;97468.44;;;16.80;100.00
38912;BME280;28444;48.056;14.408;2023-09-19T06:37:40;97459.56;;;16.82;100.00
38912;BME280;28444;48.056;14.408;2023-09-19T06:40:09;97470.59;;;16.82;100.00
38912;BME280;28444;48.056;14.408;2023-09-19T06:42:46;97465.84;;;16.96;100.00
38912;BME280;28444;48.056;14.408;2023-09-19T06:45:14;97467.28;;;16.97;100.00
38912;BME280;28444;48.056;14.408;2023-09-19T06:47:45;97476.50;;;17.02;100.00
38912;BME280;28444;48.056;14.408;2023-09-19T06:50:12;97467.59;;;17.03;100.00
38912;BME280;28444;48.056;14.408;2023-09-19T06:52:42;97473.84;;;17.04;100.00
38912;BME280;28444;48.056;14.408;2023-09-19T06:55:09;97480.69;;;17.03;100.00
38912;BME280;28444;48.056;14.408;2023-09-19T06:57:39;97479.97;;;17.02;100.00
38912;BME280;28444;48.056;14.408;2023-09-19T07:00:14;97477.00;;;16.98;100.00
38912;BME280;28444;48.056;14.408;2023-09-19T07:02:59;97493.47;;;16.96;100.00
38912;BME280;28444;48.056;14.408;2023-09-19T07:05:28;97490.69;;;16.96;99.32
38912;BME280;28444;48.056;14.408;2023-09-19T07:07:54;97487.66;;;17.04;100.00
38912;BME280;28444;48.056;14.408;2023-09-19T07:10:22;97486.75;;;17.13;100.00
38912;BME280;28444;48.056;14.408;2023-09-19T07:13:00;97504.28;;;17.31;98.77
38912;BME280;28444;48.056;14.408;2023-09-19T07:15:28;97494.50;;;17.42;98.02
38912;BME280;28444;48.056;14.408;2023-09-19T07:17:55;97500.88;;;17.59;97.66
38912;BME280;28444;48.056;14.408;2023-09-19T07:20:24;97503.28;;;17.78;96.76
38912;BME280;28444;48.056;14.408;2023-09-19T07:22:53;97515.91;;;17.95;96.13
38912;BME280;28444;48.056;14.408;2023-09-19T07:25:22;97510.88;;;17.91;94.02
38912;BME280;28444;48.056;14.408;2023-09-19T07:27:49;97515.97;;;17.97;93.09
38912;BME280;28444;48.056;14.408;2023-09-19T07:30:17;97514.34;;;17.92;93.80
38912;BME280;28444;48.056;14.408;2023-09-19T07:32:44;97529.91;;;17.85;92.18
38912;BME280;28444;48.056;14.408;2023-09-19T07:35:11;97532.25;;;17.77;93.17
38912;BME280;28444;48.056;14.408;2023-09-19T07:37:38;97528.38;;;17.82;92.44
38912;BME280;28444;48.056;14.408;2023-09-19T07:40:08;97529.41;;;17.89;91.80
38912;BME280;28444;48.056;14.408;2023-09-19T07:42:36;97536.88;;;18.00;91.87
38912;BME280;28444;48.056;14.408;2023-09-19T07:45:08;97538.81;;;18.11;93.05
38912;BME280;28444;48.056;14.408;2023-09-19T07:47:35;97545.91;;;18.28;92.16
38912;BME280;28444;48.056;14.408;2023-09-19T07:50:03;97544.34;;;18.39;90.07
38912;BME280;28444;48.056;14.408;2023-09-19T07:52:29;97555.50;;;18.41;89.91
38912;BME280;28444;48.056;14.408;2023-09-19T07:54:56;97557.81;;;18.31;88.91
38912;BME280;28444;48.056;14.408;2023-09-19T07:57:24;97555.22;;;18.48;89.14
38912;BME280;28444;48.056;14.408;2023-09-19T07:59:51;97560.53;;;18.44;88.74
38912;BME280;28444;48.056;14.408;2023-09-19T08:02:18;97559.63;;;18.40;88.43
38912;BME280;28444;48.056;14.408;2023-09-19T08:04:45;97568.75;;;18.42;88.47
38912;BME280;28444;48.056;14.408;2023-09-19T08:07:13;97563.81;;;18.55;87.04
38912;BME280;28444;48.056;14.408;2023-09-19T08:09:40;97567.72;;;18.49;86.71
38912;BME280;28444;48.056;14.408;2023-09-19T08:12:07;97564.31;;;18.51;88.13
38912;BME280;28444;48.056;14.408;2023-09-19T08:14:36;97569.84;;;18.51;87.67
38912;BME280;28444;48.056;14.408;2023-09-19T08:17:04;97573.25;;;18.49;86.28
38912;BME280;28444;48.056;14.408;2023-09-19T08:19:32;97578.09;;;18.35;86.37
38912;BME280;28444;48.056;14.408;2023-09-19T08:21:59;97570.94;;;18.30;87.37
38912;BME280;28444;48.056;14.408;2023-09-19T08:24:27;97579.22;;;18.30;86.86
38912;BME280;28444;48.056;14.408;2023-09-19T08:26:56;97576.03;;;18.36;87.26
38912;BME280;28444;48.056;14.408;2023-09-19T08:29:23;97577.97;;;18.33;86.47
38912;BME280;28444;48.056;14.408;2023-09-19T08:31:57;97582.72;;;18.31;86.85
38912;BME280;28444;48.056;14.408;2023-09-19T08:34:25;97576.34;;;18.28;86.40
38912;BME280;28444;48.056;14.408;2023-09-19T08:36:54;97575.41;;;18.37;84.71
38912;BME280;28444;48.056;14.408;2023-09-19T08:39:23;97585.88;;;18.39;85.63
38912;BME280;28444;48.056;14.408;2023-09-19T08:41:57;97594.56;;;18.47;86.56
38912;BME280;28444;48.056;14.408;2023-09-19T08:44:25;97585.75;;;18.50;85.16
38912;BME280;28444;48.056;14.408;2023-09-19T08:46:55;97590.25;;;18.58;83.84
38912;BME280;28444;48.056;14.408;2023-09-19T08:49:36;97583.00;;;18.78;83.17
38912;BME280;28444;48.056;14.408;2023-09-19T08:52:42;97586.84;;;18.87;82.22
38912;BME280;28444;48.056;14.408;2023-09-19T08:55:13;97591.28;;;18.92;81.67
38912;BME280;28444;48.056;14.408;2023-09-19T08:57:51;97582.47;;;18.82;82.65
38912;BME280;28444;48.056;14.408;2023-09-19T09:00:19;97589.13;;;18.76;82.15
38912;BME280;28444;48.056;14.408;2023-09-19T09:02:47;97591.09;;;18.74;81.45
38912;BME280;28444;48.056;14.408;2023-09-19T09:05:16;97596.19;;;18.66;82.74
38912;BME280;28444;48.056;14.408;2023-09-19T09:07:50;97592.19;;;18.69;81.84
38912;BME280;28444;48.056;14.408;2023-09-19T09:10:18;97600.81;;;18.61;83.30
38912;BME280;28444;48.056;14.408;2023-09-19T09:12:51;97598.88;;;18.64;84.54
38912;BME280;28444;48.056;14.408;2023-09-19T09:15:22;97597.72;;;18.69;85.85
38912;BME280;28444;48.056;14.408;2023-09-19T09:17:50;97601.13;;;18.81;83.73
38912;BME280;28444;48.056;14.408;2023-09-19T09:20:20;97598.56;;;18.85;84.10
38912;BME280;28444;48.056;14.408;2023-09-19T09:22:56;97595.38;;;18.77;84.54
38912;BME280;28444;48.056;14.408;2023-09-19T09:25:54;97601.44;;;18.73;84.13
38912;BME280;28444;48.056;14.408;2023-09-19T09:28:25;97602.38;;;18.78;84.02
38912;BME280;28444;48.056;14.408;2023-09-19T09:30:54;97597.94;;;18.87;82.86
38912;BME280;28444;48.056;14.408;2023-09-19T09:33:21;97605.53;;;18.72;83.94
38912;BME280;28444;48.056;14.408;2023-09-19T09:35:54;97608.09;;;18.68;83.49
38912;BME280;28444;48.056;14.408;2023-09-19T09:38:26;97604.31;;;18.62;84.41
38912;BME280;28444;48.056;14.408;2023-09-19T09:41:00;97598.06;;;18.61;85.41
38912;BME280;28444;48.056;14.408;2023-09-19T09:46:15;97602.94;;;18.90;85.97
38912;BME280;28444;48.056;14.408;2023-09-19T09:51:51;97603.81;;;19.09;82.70
38912;BME280;28444;48.056;14.408;2023-09-19T09:54:29;97606.13;;;19.28;83.06
38912;BME280;28444;48.056;14.408;2023-09-19T09:57:07;97612.88;;;19.68;80.77
38912;BME280;28444;48.056;14.408;2023-09-19T10:02:15;97621.03;;;19.51;81.76
38912;BME280;28444;48.056;14.408;2023-09-19T10:04:47;97609.72;;;19.31;83.85
38912;BME280;28444;48.056;14.408;2023-09-19T10:07:32;97615.78;;;19.27;84.45
38912;BME280;28444;48.056;14.408;2023-09-19T10:10:02;97620.94;;;19.19;83.51
38912;BME280;28444;48.056;14.408;2023-09-19T10:12:44;97615.72;;;19.11;83.65
38912;BME280;28444;48.056;14.408;2023-09-19T10:15:12;97618.91;;;19.06;87.19
38912;BME280;28444;48.056;14.408;2023-09-19T10:17:43;97617.94;;;18.85;86.14
38912;BME280;28444;48.056;14.408;2023-09-19T10:20:16;97616.50;;;18.84;87.38
38912;BME280;28444;48.056;14.408;2023-09-19T10:23:10;97620.47;;;18.95;87.77
38912;BME280;28444;48.056;14.408;2023-09-19T10:25:41;97618.34;;;18.93;88.41
38912;BME280;28444;48.056;14.408;2023-09-19T10:28:10;97625.94;;;18.93;88.61
38912;BME280;28444;48.056;14.408;2023-09-19T10:30:47;97629.13;;;18.87;90.39
38912;BME280;28444;48.056;14.408;2023-09-19T10:33:17;97630.25;;;18.96;91.06
38912;BME280;28444;48.056;14.408;2023-09-19T10:35:48;97622.22;;;19.02;90.01
38912;BME280;28444;48.056;14.408;2023-09-19T10:38:18;97628.75;;;19.09;89.03
38912;BME280;28444;48.056;14.408;2023-09-19T10:40:52;97610.22;;;18.97;90.02
38912;BME280;28444;48.056;14.408;2023-09-19T10:43:21;97612.91;;;18.95;89.37
38912;BME280;28444;48.056;14.408;2023-09-19T10:45:52;97603.91;;;18.81;90.73
38912;BME280;28444;48.056;14.408;2023-09-19T10:48:20;97601.94;;;18.70;90.26
38912;BME280;28444;48.056;14.408;2023-09-19T10:51:01;97601.94;;;18.70;91.03
38912;BME280;28444;48.056;14.408;2023-09-19T10:53:43;97595.91;;;18.73;92.60
38912;BME280;28444;48.056;14.408;2023-09-19T10:56:26;97606.47;;;18.63;91.54
38912;BME280;28444;48.056;14.408;2023-09-19T10:59:10;97600.31;;;18.65;90.15
38912;BME280;28444;48.056;14.408;2023-09-19T11:07:08;97608.72;;;18.67;91.16
38912;BME280;28444;48.056;14.408;2023-09-19T11:09:49;97613.75;;;18.70;91.84
38912;BME280;28444;48.056;14.408;2023-09-19T11:14:56;97609.72;;;18.87;91.67
38912;BME280;28444;48.056;14.408;2023-09-19T11:17:39;97608.78;;;18.96;91.92
38912;BME280;28444;48.056;14.408;2023-09-19T11:30:46;97602.63;;;19.57;88.16
38912;BME280;28444;48.056;14.408;2023-09-19T11:33:19;97603.34;;;19.58;87.31
38912;BME280;28444;48.056;14.408;2023-09-19T11:36:06;97606.69;;;19.70;87.29
38912;BME280;28444;48.056;14.408;2023-09-19T11:43:50;97614.31;;;20.01;85.94
38912;BME280;28444;48.056;14.408;2023-09-19T11:46:21;97613.50;;;19.99;85.49
38912;BME280;28444;48.056;14.408;2023-09-19T11:48:49;97622.72;;;20.03;86.96
38912;BME280;28444;48.056;14.408;2023-09-19T11:51:26;97624.44;;;19.94;86.91
38912;BME280;28444;48.056;14.408;2023-09-19T11:53:58;97624.66;;;19.69;89.96
38912;BME280;28444;48.056;14.408;2023-09-19T11:56:29;97612.34;;;19.72;91.04
38912;BME280;28444;48.056;14.408;2023-09-19T11:58:58;97610.16;;;19.70;90.25
38912;BME280;28444;48.056;14.408;2023-09-19T12:01:33;97605.16;;;19.67;91.79
38912;BME280;28444;48.056;14.408;2023-09-19T12:04:02;97595.47;;;19.68;92.88
38912;BME280;28444;48.056;14.408;2023-09-19T12:06:31;97596.66;;;19.63;92.71
38912;BME280;28444;48.056;14.408;2023-09-19T12:09:02;97593.13;;;19.46;93.38
38912;BME280;28444;48.056;14.408;2023-09-19T12:11:41;97585.75;;;19.37;94.17
38912;BME280;28444;48.056;14.408;2023-09-19T12:14:09;97593.38;;;19.37;94.31
38912;BME280;28444;48.056;14.408;2023-09-19T12:16:36;97590.66;;;19.39;93.48
38912;BME280;28444;48.056;14.408;2023-09-19T12:19:20;97590.25;;;19.44;94.45
38912;BME280;28444;48.056;14.408;2023-09-19T12:21:55;97600.53;;;19.42;93.46
38912;BME280;28444;48.056;14.408;2023-09-19T12:24:26;97606.78;;;19.42;92.83
38912;BME280;28444;48.056;14.408;2023-09-19T12:27:01;97599.34;;;19.31;94.15
38912;BME280;28444;48.056;14.408;2023-09-19T12:29:47;97602.38;;;19.21;95.31
38912;BME280;28444;48.056;14.408;2023-09-19T12:32:34;97603.69;;;19.20;95.75
38912;BME280;28444;48.056;14.408;2023-09-19T12:35:03;97602.97;;;19.20;94.92
38912;BME280;28444;48.056;14.408;2023-09-19T12:37:34;97596.09;;;19.21;94.03
38912;BME280;28444;48.056;14.408;2023-09-19T12:40:07;97602.22;;;19.33;93.90
38912;BME280;28444;48.056;14.408;2023-09-19T12:42:49;97601.34;;;19.44;94.27
38912;BME280;28444;48.056;14.408;2023-09-19T12:45:16;97595.97;;;19.48;94.03
38912;BME280;28444;48.056;14.408;2023-09-19T12:48:22;97595.09;;;19.60;93.82
38912;BME280;28444;48.056;14.408;2023-09-19T12:51:03;97587.63;;;19.62;93.33
38912;BME280;28444;48.056;14.408;2023-09-19T12:53:37;97584.66;;;19.74;92.83
38912;BME280;28444;48.056;14.408;2023-09-19T12:56:11;97588.44;;;19.81;91.76
38912;BME280;28444;48.056;14.408;2023-09-19T12:58:53;97583.31;;;20.07;90.32
38912;BME280;28444;48.056;14.408;2023-09-19T13:01:22;97580.13;;;20.12;89.82
38912;BME280;28444;48.056;14.408;2023-09-19T13:06:51;97567.00;;;20.31;86.91
38912;BME280;28444;48.056;14.408;2023-09-19T13:09:20;97562.63;;;20.26;86.79
38912;BME280;28444;48.056;14.408;2023-09-19T13:11:47;97562.81;;;20.14;87.52
38912;BME280;28444;48.056;14.408;2023-09-19T13:14:29;97569.72;;;20.13;86.39
38912;BME280;28444;48.056;14.408;2023-09-19T13:17:04;97560.78;;;19.99;86.36
38912;BME280;28444;48.056;14.408;2023-09-19T13:19:45;97559.78;;;19.92;87.08
38912;BME280;28444;48.056;14.408;2023-09-19T13:22:43;97555.97;;;19.83;87.21
38912;BME280;28444;48.056;14.408;2023-09-19T13:25:21;97561.25;;;19.77;87.51
38912;BME280;28444;48.056;14.408;2023-09-19T13:27:49;97556.94;;;19.90;88.14
38912;BME280;28444;48.056;14.408;2023-09-19T13:30:25;97550.56;;;20.03;88.74
38912;BME280;28444;48.056;14.408;2023-09-19T13:33:03;97551.81;;;20.16;89.06
38912;BME280;28444;48.056;14.408;2023-09-19T13:35:31;97552.31;;;20.28;88.97
38912;BME280;28444;48.056;14.408;2023-09-19T13:37:57;97554.66;;;20.34;86.45
38912;BME280;28444;48.056;14.408;2023-09-19T13:40:25;97548.16;;;20.45;87.18
38912;BME280;28444;48.056;14.408;2023-09-19T13:42:57;97549.50;;;20.44;86.18
38912;BME280;28444;48.056;14.408;2023-09-19T13:45:23;97544.31;;;20.52;84.72
38912;BME280;28444;48.056;14.408;2023-09-19T13:47:53;97542.31;;;20.55;84.21
38912;BME280;28444;48.056;14.408;2023-09-19T13:50:20;97543.38;;;20.63;84.42